createdAt,value
2022-12-17T00:01:43.388Z,2.28
2022-12-17T00:04:29.053Z,2.38
2022-12-17T00:07:15.389Z,2.28
2022-12-17T00:10:00.708Z,2.43
2022-12-17T00:12:46.133Z,2.53
2022-12-17T00:15:31.366Z,2.37
2022-12-17T00:18:22.440Z,2.45
2022-12-17T00:21:12.088Z,2.46
2022-12-17T00:23:57.274Z,2.57
2022-12-17T00:26:43.104Z,2.44
2022-12-17T00:29:28.762Z,2.35
2022-12-17T00:32:16.131Z,2.42
2022-12-17T00:35:02.910Z,2.21
2022-12-17T00:37:48.510Z,2.51
2022-12-17T00:40:33.851Z,2.70
2022-12-17T00:43:19.736Z,2.66
2022-12-17T00:46:07.411Z,2.74
2022-12-17T00:48:52.532Z,2.58
2022-12-17T00:51:39.617Z,2.48
2022-12-17T00:54:24.869Z,2.37
2022-12-17T00:57:06.931Z,2.56
2022-12-17T00:59:53.219Z,2.52
2022-12-17T01:02:42.154Z,2.29
2022-12-17T01:05:28.033Z,2.52
2022-12-17T01:08:14.666Z,2.55
2022-12-17T01:11:00.617Z,2.55
2022-12-17T01:13:46.468Z,2.52
2022-12-17T01:16:33.878Z,2.46
2022-12-17T01:19:20.271Z,2.22
2022-12-17T01:22:17.035Z,2.41
2022-12-17T01:25:04.148Z,2.25
2022-12-17T01:27:49.639Z,2.48
2022-12-17T01:30:35.294Z,2.52
2022-12-17T01:33:22.152Z,2.69
2022-12-17T01:36:08.542Z,2.77
2022-12-17T01:38:53.998Z,2.48
2022-12-17T01:41:40.581Z,2.49
2022-12-17T01:45:03.951Z,2.48
2022-12-17T01:47:53.783Z,2.49
2022-12-17T01:50:43.726Z,2.36
2022-12-17T01:53:30.562Z,2.17
2022-12-17T01:56:17.381Z,2.16
2022-12-17T01:59:04.793Z,2.29
2022-12-17T02:01:49.348Z,2.15
2022-12-17T02:04:35.553Z,2.23
2022-12-17T02:07:45.017Z,2.41
2022-12-17T02:10:42.530Z,2.29
2022-12-17T02:13:34.614Z,2.30
2022-12-17T02:16:27.831Z,2.24
2022-12-17T02:19:18.161Z,2.05
2022-12-17T02:22:08.364Z,2.22
2022-12-17T02:25:02.609Z,1.92
2022-12-17T02:27:50.859Z,2.31
2022-12-17T02:30:37.825Z,2.38
2022-12-17T02:33:23.532Z,2.11
2022-12-17T02:36:13.769Z,2.18
2022-12-17T02:38:58.978Z,2.21
2022-12-17T02:41:48.653Z,2.28
2022-12-17T02:44:40.119Z,2.32
2022-12-17T02:47:28.664Z,2.01
2022-12-17T02:50:14.996Z,1.96
2022-12-17T02:53:07.867Z,2.25
2022-12-17T02:55:54.611Z,2.20
2022-12-17T02:58:39.979Z,2.06
2022-12-17T03:01:27.146Z,2.31
2022-12-17T03:04:13.195Z,2.30
2022-12-17T03:07:03.123Z,2.10
2022-12-17T03:09:48.381Z,2.08
2022-12-17T03:12:33.670Z,2.04
2022-12-17T03:15:19.117Z,2.10
2022-12-17T03:18:05.922Z,2.10
2022-12-17T03:20:51.566Z,2.07
2022-12-17T03:23:36.906Z,2.15
2022-12-17T03:26:23.182Z,2.17
2022-12-17T03:29:08.511Z,1.85
2022-12-17T03:31:53.975Z,1.80
2022-12-17T03:34:40.681Z,1.97
2022-12-17T03:37:26.314Z,2.06
2022-12-17T03:40:11.590Z,1.96
2022-12-17T03:42:56.717Z,1.98
2022-12-17T03:45:42.157Z,2.05
2022-12-17T03:48:30.431Z,1.76
2022-12-17T03:51:17.803Z,1.97
2022-12-17T03:54:03.698Z,1.85
2022-12-17T03:56:49.533Z,1.95
2022-12-17T03:59:35.204Z,1.88
2022-12-17T04:02:21.069Z,2.01
2022-12-17T04:05:06.605Z,2.08
2022-12-17T04:07:53.483Z,1.94
2022-12-17T04:10:38.734Z,2.12
2022-12-17T04:13:24.181Z,2.19
2022-12-17T04:16:24.058Z,2.30
2022-12-17T04:19:17.798Z,2.14
2022-12-17T04:22:03.038Z,2.06
2022-12-17T04:24:49.582Z,2.35
2022-12-17T04:27:34.771Z,2.16
2022-12-17T04:30:19.912Z,2.35
2022-12-17T04:33:05.193Z,2.25
2022-12-17T04:35:46.945Z,2.17
2022-12-17T04:38:32.399Z,1.83
2022-12-17T04:41:18.869Z,2.00
2022-12-17T04:44:04.189Z,2.11
2022-12-17T04:46:49.659Z,2.24
2022-12-17T04:49:34.931Z,2.18
2022-12-17T04:52:20.177Z,2.11
2022-12-17T04:55:05.400Z,2.11
2022-12-17T04:57:52.199Z,2.02
2022-12-17T05:00:37.985Z,1.85
2022-12-17T05:03:24.799Z,2.01
2022-12-17T05:06:10.042Z,1.97
2022-12-17T05:08:55.237Z,1.94
2022-12-17T05:11:41.393Z,2.16
2022-12-17T05:14:28.217Z,1.98
2022-12-17T05:17:13.927Z,2.04
2022-12-17T05:19:59.035Z,2.11
2022-12-17T05:22:44.326Z,2.09
2022-12-17T05:25:29.557Z,1.99
2022-12-17T05:28:15.074Z,1.98
2022-12-17T05:31:02.289Z,2.04
2022-12-17T05:33:47.633Z,2.04
2022-12-17T05:36:32.997Z,1.74
2022-12-17T05:39:18.427Z,1.90
2022-12-17T05:42:03.817Z,1.93
2022-12-17T05:44:48.985Z,1.74
2022-12-17T05:47:47.176Z,1.83
2022-12-17T05:50:32.487Z,1.83
2022-12-17T05:53:20.360Z,2.00
2022-12-17T05:56:13.561Z,1.84
2022-12-17T05:58:58.999Z,2.12
2022-12-17T06:01:44.375Z,1.73
2022-12-17T06:04:30.970Z,1.84
2022-12-17T06:07:16.199Z,1.80
2022-12-17T06:10:01.346Z,1.88
2022-12-17T06:12:46.471Z,1.75
2022-12-17T06:15:31.537Z,1.70
2022-12-17T06:18:17.429Z,1.83
2022-12-17T06:21:04.723Z,1.61
2022-12-17T06:23:50.308Z,1.77
2022-12-17T06:26:35.545Z,1.36
2022-12-17T06:29:20.981Z,1.66
2022-12-17T06:32:06.158Z,1.85
2022-12-17T06:34:51.675Z,1.94
2022-12-17T06:37:38.423Z,2.07
2022-12-17T06:40:39.439Z,2.08
2022-12-17T06:43:24.829Z,1.85
2022-12-17T06:46:10.710Z,1.95
2022-12-17T06:48:56.091Z,2.05
2022-12-17T06:51:41.406Z,2.11
2022-12-17T06:54:28.185Z,2.02
2022-12-17T06:57:13.408Z,2.08
2022-12-17T06:59:58.908Z,2.08
2022-12-17T07:02:49.620Z,2.01
2022-12-17T07:05:35.396Z,2.02
2022-12-17T07:08:20.690Z,2.06
2022-12-17T07:11:06.477Z,2.11
2022-12-17T07:13:51.843Z,2.08
2022-12-17T07:16:37.380Z,1.97
2022-12-17T07:19:26.998Z,2.04
2022-12-17T07:22:13.035Z,2.15
2022-12-17T07:24:58.368Z,2.07
2022-12-17T07:27:45.418Z,1.96
2022-12-17T07:30:31.283Z,1.83
2022-12-17T07:33:17.946Z,1.84
2022-12-17T07:36:11.545Z,2.01
2022-12-17T07:38:56.619Z,2.13
2022-12-17T07:41:41.667Z,2.08
2022-12-17T07:44:28.678Z,2.20
2022-12-17T07:47:14.641Z,2.04
2022-12-17T07:49:59.787Z,2.07
2022-12-17T07:52:45.071Z,2.17
2022-12-17T07:55:30.513Z,1.87
2022-12-17T07:58:20.056Z,1.96
2022-12-17T08:01:07.228Z,1.99
2022-12-17T08:03:52.437Z,2.01
2022-12-17T08:06:58.408Z,2.12
2022-12-17T08:09:46.187Z,2.14
2022-12-17T08:12:31.626Z,2.14
2022-12-17T08:15:16.895Z,2.24
2022-12-17T08:18:03.427Z,2.32
2022-12-17T08:20:50.202Z,2.44
2022-12-17T08:23:35.914Z,2.34
2022-12-17T08:26:21.516Z,1.99
2022-12-17T08:29:06.938Z,2.20
2022-12-17T08:31:48.652Z,2.17
2022-12-17T08:34:35.384Z,1.92
2022-12-17T08:37:20.918Z,2.07
2022-12-17T08:40:06.398Z,2.22
2022-12-17T08:42:51.573Z,1.89
2022-12-17T08:45:36.953Z,2.14
2022-12-17T08:48:23.194Z,1.96
2022-12-17T08:51:10.216Z,2.22
2022-12-17T08:53:55.501Z,2.20
2022-12-17T08:56:40.909Z,2.16
2022-12-17T08:59:26.866Z,2.18
2022-12-17T09:02:12.556Z,2.30
2022-12-17T09:05:00.130Z,2.44
2022-12-17T09:07:46.935Z,2.12
2022-12-17T09:10:32.448Z,2.28
2022-12-17T09:13:20.673Z,2.22
2022-12-17T09:16:10.317Z,2.23
2022-12-17T09:18:56.198Z,2.38
2022-12-17T09:21:41.949Z,1.96
2022-12-17T09:24:29.546Z,2.00
2022-12-17T09:27:15.308Z,2.45
2022-12-17T09:30:00.915Z,2.34
2022-12-17T09:32:46.672Z,2.54
2022-12-17T09:35:28.489Z,2.75
2022-12-17T09:38:15.176Z,2.12
2022-12-17T09:41:09.758Z,2.24
2022-12-17T09:44:06.482Z,2.24
2022-12-17T09:46:58.392Z,2.46
2022-12-17T09:49:46.827Z,2.36
2022-12-17T09:52:38.527Z,2.41
2022-12-17T09:55:34.461Z,2.55
2022-12-17T09:58:33.745Z,2.59
2022-12-17T10:01:19.601Z,2.81
2022-12-17T10:04:06.192Z,2.42
2022-12-17T10:06:53.717Z,2.46
2022-12-17T10:09:39.563Z,2.42
2022-12-17T10:12:32.741Z,2.53
2022-12-17T10:15:19.482Z,2.69
2022-12-17T10:18:05.276Z,2.43
2022-12-17T10:20:55.204Z,2.56
2022-12-17T10:23:44.767Z,2.56
2022-12-17T10:26:35.499Z,2.30
2022-12-17T10:29:22.875Z,2.12
2022-12-17T10:32:14.937Z,2.17
2022-12-17T10:35:05.718Z,2.47
2022-12-17T10:37:54.054Z,2.70
2022-12-17T10:40:44.593Z,2.40
2022-12-17T10:43:45.197Z,2.57
2022-12-17T10:46:31.034Z,2.48
2022-12-17T10:49:28.715Z,2.53
2022-12-17T10:52:18.864Z,2.54
2022-12-17T10:55:15.547Z,2.33
2022-12-17T10:58:02.265Z,2.23
2022-12-17T11:00:50.777Z,2.41
2022-12-17T11:03:48.683Z,2.60
2022-12-17T11:06:42.819Z,2.49
2022-12-17T11:09:43.324Z,2.39
2022-12-17T11:12:31.306Z,2.48
2022-12-17T11:15:22.852Z,2.36
2022-12-17T11:18:11.759Z,2.72
2022-12-17T11:21:06.149Z,2.72
2022-12-17T11:23:56.118Z,2.76
2022-12-17T11:26:45.743Z,2.84
2022-12-17T11:29:32.499Z,2.79
2022-12-17T11:32:39.943Z,2.60
2022-12-17T11:35:35.726Z,2.72
2022-12-17T11:38:31.539Z,2.59
2022-12-17T11:41:40.101Z,2.66
2022-12-17T11:44:37.365Z,2.57
2022-12-17T11:47:33.256Z,2.75
2022-12-17T11:50:31.591Z,2.52
2022-12-17T11:53:28.231Z,2.45
2022-12-17T11:56:21.171Z,2.45
2022-12-17T11:59:11.321Z,2.61
2022-12-17T12:02:03.153Z,2.54
2022-12-17T12:04:58.785Z,2.56
2022-12-17T12:07:55.697Z,2.52
2022-12-17T12:10:46.850Z,2.48
2022-12-17T12:13:43.309Z,2.45
2022-12-17T12:16:38.065Z,2.47
2022-12-17T12:19:37.411Z,2.65
2022-12-17T12:22:30.897Z,2.55
2022-12-17T12:25:24.648Z,2.54
2022-12-17T12:28:20.972Z,2.48
2022-12-17T12:31:14.350Z,2.60
2022-12-17T12:34:08.079Z,2.56
2022-12-17T12:36:56.259Z,2.40
2022-12-17T12:39:49.537Z,2.25
2022-12-17T12:42:41.401Z,2.14
2022-12-17T12:45:55.732Z,2.25
2022-12-17T12:48:56.700Z,2.20
2022-12-17T12:51:44.836Z,2.33
2022-12-17T12:54:46.032Z,2.26
2022-12-17T12:57:48.060Z,2.14
2022-12-17T13:00:42.523Z,2.36
2022-12-17T13:03:40.043Z,2.17
2022-12-17T13:06:09.706Z,2.29
2022-12-17T13:08:38.302Z,2.21
2022-12-17T13:11:30.318Z,2.31
2022-12-17T13:14:02.509Z,2.40
2022-12-17T13:16:50.052Z,2.35
2022-12-17T13:19:22.667Z,2.28
2022-12-17T13:21:51.930Z,2.28
2022-12-17T13:24:26.496Z,2.28
2022-12-17T13:26:54.735Z,1.96
2022-12-17T13:29:28.228Z,1.92
2022-12-17T13:32:04.745Z,1.86
2022-12-17T13:34:43.668Z,1.92
2022-12-17T13:37:21.823Z,2.11
2022-12-17T13:39:57.159Z,2.15
2022-12-17T13:42:29.807Z,2.23
2022-12-17T13:44:58.874Z,1.88
2022-12-17T13:47:28.816Z,1.83
2022-12-17T13:50:32.328Z,1.78
2022-12-17T13:52:48.600Z,1.85
2022-12-17T13:55:21.122Z,1.71
2022-12-17T13:57:50.238Z,1.84
2022-12-17T14:00:24.047Z,2.09
2022-12-17T14:02:52.448Z,2.16
2022-12-17T14:05:27.326Z,2.12
2022-12-17T14:07:59.733Z,2.21
2022-12-17T14:10:27.820Z,2.30
2022-12-17T14:13:05.655Z,2.27
2022-12-17T14:15:34.063Z,2.08
2022-12-17T14:18:03.211Z,2.15
2022-12-17T14:20:33.997Z,2.07
2022-12-17T14:23:06.152Z,2.03
2022-12-17T14:25:37.927Z,2.16
2022-12-17T14:28:07.845Z,2.10
2022-12-17T14:30:46.111Z,1.97
2022-12-17T14:33:29.205Z,2.21
2022-12-17T14:35:58.456Z,2.10
2022-12-17T14:38:38.266Z,1.95
2022-12-17T14:41:25.750Z,2.16
2022-12-17T14:43:58.523Z,2.03
2022-12-17T14:46:26.752Z,1.48
2022-12-17T14:49:03.573Z,2.04
2022-12-17T14:51:34.498Z,2.11
2022-12-17T14:54:20.386Z,2.18
2022-12-17T14:56:49.996Z,2.10
2022-12-17T14:59:32.740Z,2.08
2022-12-17T15:02:03.997Z,1.68
2022-12-17T15:04:33.688Z,1.98
2022-12-17T15:07:01.607Z,1.93
2022-12-17T15:09:30.987Z,1.95
2022-12-17T15:11:58.940Z,1.69
2022-12-17T15:14:26.879Z,1.77
2022-12-17T15:16:55.943Z,1.92
2022-12-17T15:19:24.185Z,1.79
2022-12-17T15:21:52.199Z,1.63
2022-12-17T15:24:22.040Z,1.42
2022-12-17T15:26:51.400Z,1.46
2022-12-17T15:29:19.399Z,1.54
2022-12-17T15:31:47.489Z,1.66
2022-12-17T15:34:15.421Z,1.51
2022-12-17T15:36:43.302Z,1.39
2022-12-17T15:39:12.193Z,1.55
2022-12-17T15:41:57.773Z,1.63
2022-12-17T15:44:27.975Z,1.43
2022-12-17T15:46:55.998Z,1.83
2022-12-17T15:49:24.059Z,1.58
2022-12-17T15:51:52.059Z,1.72
2022-12-17T15:54:20.127Z,1.39
2022-12-17T15:56:54.545Z,1.53
2022-12-17T15:59:22.877Z,1.34
2022-12-17T16:01:52.275Z,1.64
2022-12-17T16:04:24.843Z,1.77
2022-12-17T16:06:53.188Z,1.59
2022-12-17T16:09:24.500Z,1.79
2022-12-17T16:11:54.903Z,1.80
2022-12-17T16:14:23.211Z,1.71
2022-12-17T16:16:53.043Z,1.33
2022-12-17T16:19:20.978Z,1.02
2022-12-17T16:21:49.080Z,1.19
2022-12-17T16:24:17.078Z,1.17
2022-12-17T16:26:45.072Z,1.20
2022-12-17T16:29:12.945Z,1.26
2022-12-17T16:31:40.842Z,1.39
2022-12-17T16:34:10.802Z,1.14
2022-12-17T16:36:38.838Z,1.30
2022-12-17T16:39:07.169Z,1.17
2022-12-17T16:41:35.659Z,1.29
2022-12-17T16:44:04.340Z,1.34
2022-12-17T16:46:34.256Z,1.13
2022-12-17T16:49:06.505Z,1.39
2022-12-17T16:51:35.784Z,1.39
2022-12-17T16:54:06.338Z,1.17
2022-12-17T16:56:39.682Z,1.29
2022-12-17T16:59:09.574Z,1.28
2022-12-17T17:01:39.316Z,1.25
2022-12-17T17:04:09.405Z,1.16
2022-12-17T17:06:41.972Z,1.47
2022-12-17T17:09:10.310Z,1.42
2022-12-17T17:11:39.037Z,1.36
2022-12-17T17:14:08.244Z,1.43
2022-12-17T17:16:36.485Z,1.48
2022-12-17T17:19:05.694Z,1.57
2022-12-17T17:21:35.667Z,1.38
2022-12-17T17:24:08.091Z,1.34
2022-12-17T17:26:36.109Z,1.51
2022-12-17T17:29:05.081Z,1.46
2022-12-17T17:32:08.673Z,1.42
2022-12-17T17:34:21.203Z,1.47
2022-12-17T17:36:49.400Z,1.24
2022-12-17T17:39:18.606Z,1.11
2022-12-17T17:41:46.517Z,0.94
2022-12-17T17:44:15.426Z,1.07
2022-12-17T17:46:43.974Z,1.26
2022-12-17T17:49:12.613Z,1.33
2022-12-17T17:54:32.586Z,1.24
2022-12-17T17:57:00.545Z,1.14
2022-12-17T17:59:33.355Z,1.27
2022-12-17T18:02:02.491Z,1.19
2022-12-17T18:04:30.979Z,1.24
2022-12-17T18:09:48.194Z,1.20
2022-12-17T18:12:33.751Z,1.24
2022-12-17T18:15:18.375Z,1.43
2022-12-17T18:17:48.329Z,1.27
2022-12-17T18:20:16.367Z,1.33
2022-12-17T18:22:46.097Z,1.32
2022-12-17T18:25:16.561Z,1.15
2022-12-17T18:27:44.525Z,1.30
2022-12-17T18:30:13.435Z,1.23
2022-12-17T18:32:42.344Z,0.73
2022-12-17T18:35:10.659Z,0.79
2022-12-17T18:37:39.029Z,0.72
2022-12-17T18:40:08.272Z,1.06
2022-12-17T18:42:55.064Z,0.80
2022-12-17T18:45:23.206Z,0.82
2022-12-17T18:47:51.995Z,0.78
2022-12-17T18:50:20.096Z,0.76
2022-12-17T18:52:47.957Z,0.75
2022-12-17T18:55:16.343Z,0.88
2022-12-17T18:57:45.607Z,0.86
2022-12-17T19:00:14.894Z,0.64
2022-12-17T19:02:42.906Z,0.96
2022-12-17T19:05:10.956Z,1.01
2022-12-17T19:07:38.777Z,0.84
2022-12-17T19:10:07.701Z,0.45
2022-12-17T19:12:35.853Z,0.73
2022-12-17T19:15:05.758Z,0.78
2022-12-17T19:17:34.507Z,0.77
2022-12-17T19:20:02.477Z,0.77
2022-12-17T19:22:30.446Z,0.84
2022-12-17T19:24:58.325Z,0.48
2022-12-17T19:27:26.327Z,0.45
2022-12-17T19:29:56.432Z,0.30
2022-12-17T19:32:25.812Z,0.20
2022-12-17T19:34:53.822Z,0.58
2022-12-17T19:37:21.669Z,0.56
2022-12-17T19:39:49.524Z,0.85
2022-12-17T19:42:25.459Z,0.75
2022-12-17T19:44:54.028Z,0.53
2022-12-17T19:47:22.958Z,0.44
2022-12-17T19:49:52.501Z,0.51
2022-12-17T19:52:20.351Z,0.51
2022-12-17T19:54:49.970Z,0.25
2022-12-17T19:57:17.898Z,0.07
2022-12-17T19:59:45.943Z,0.11
2022-12-17T20:02:15.670Z,0.30
2022-12-17T20:04:43.786Z,0.12
2022-12-17T20:07:12.977Z,0.08
2022-12-17T20:09:44.099Z,0.15
2022-12-17T20:12:12.517Z,0.23
2022-12-17T20:14:40.459Z,0.46
2022-12-17T20:17:08.512Z,0.13
2022-12-17T20:19:36.609Z,0.14
2022-12-17T20:22:06.944Z,0.23
2022-12-17T20:24:37.352Z,0.33
2022-12-17T20:27:05.850Z,0.01
2022-12-17T20:29:33.820Z,0.12
2022-12-17T20:32:03.158Z,-0.38
2022-12-17T20:34:31.093Z,-0.14
2022-12-17T20:36:58.993Z,-0.18
2022-12-17T20:39:28.215Z,0.00
2022-12-17T20:41:58.146Z,-0.15
2022-12-17T20:44:26.241Z,-0.19
2022-12-17T20:46:54.207Z,0.08
2022-12-17T20:49:24.850Z,-0.03
2022-12-17T20:51:52.794Z,-0.23
2022-12-17T20:54:21.616Z,-0.18
2022-12-17T20:56:49.943Z,-0.05
2022-12-17T20:59:20.785Z,-0.49
2022-12-17T21:01:55.594Z,-0.58
2022-12-17T21:04:24.351Z,-0.18
2022-12-17T21:06:52.969Z,-0.41
2022-12-17T21:09:22.567Z,-0.24
2022-12-17T21:11:50.847Z,-0.38
2022-12-17T21:14:20.874Z,-1.02
2022-12-17T21:16:49.383Z,-1.02
2022-12-17T21:19:20.127Z,-0.67
2022-12-17T21:21:48.379Z,-0.55
2022-12-17T21:24:16.227Z,-0.42
2022-12-17T21:26:45.324Z,-0.14
2022-12-17T21:29:14.415Z,-0.10
2022-12-17T21:31:46.558Z,-0.34
2022-12-17T21:34:17.321Z,-0.18
2022-12-17T21:36:46.956Z,-0.11
2022-12-17T21:39:16.774Z,-0.24
2022-12-17T21:42:06.906Z,-0.12
2022-12-17T21:44:35.158Z,-0.33
2022-12-17T21:47:04.631Z,-0.46
2022-12-17T21:49:32.581Z,-0.58
2022-12-17T21:52:01.918Z,-0.52
2022-12-17T21:54:29.991Z,-0.35
2022-12-17T21:56:57.897Z,-0.16
2022-12-17T21:59:25.767Z,-0.45
2022-12-17T22:01:57.323Z,-0.21
2022-12-17T22:04:27.423Z,-0.22
2022-12-17T22:06:59.111Z,-0.23
2022-12-17T22:09:49.238Z,-0.29
2022-12-17T22:12:40.542Z,-0.09
2022-12-17T22:15:11.046Z,-0.49
2022-12-17T22:17:41.413Z,-0.53
2022-12-17T22:20:11.873Z,-0.55
2022-12-17T22:22:39.741Z,-0.62
2022-12-17T22:25:10.842Z,-0.96
2022-12-17T22:27:40.059Z,-0.88
2022-12-17T22:30:30.355Z,-0.64
2022-12-17T22:33:02.232Z,-0.87
2022-12-17T22:37:45.424Z,-0.79
2022-12-17T22:41:06.282Z,-0.86
2022-12-17T22:44:36.378Z,-0.69
2022-12-17T22:44:42.605Z,-0.64
2022-12-17T22:47:09.664Z,-0.61
2022-12-17T22:49:39.205Z,-0.71
2022-12-17T22:52:08.626Z,-0.76
2022-12-17T22:54:36.741Z,-0.86
2022-12-17T22:57:35.813Z,-1.12
2022-12-17T22:59:52.954Z,-0.96
2022-12-17T23:02:20.870Z,-0.78
2022-12-17T23:04:48.930Z,-0.91
2022-12-17T23:07:18.162Z,-0.93
2022-12-17T23:09:46.058Z,-0.76
2022-12-17T23:12:36.800Z,-0.68
2022-12-17T23:15:07.746Z,-0.83
2022-12-17T23:17:35.647Z,-0.86
2022-12-17T23:20:03.594Z,-0.96
2022-12-17T23:22:34.377Z,-0.78
2022-12-17T23:25:02.318Z,-1.22
2022-12-17T23:27:30.382Z,-1.04
2022-12-17T23:29:58.845Z,-0.97
2022-12-17T23:32:27.330Z,-1.18
2022-12-17T23:34:55.220Z,-1.00
2022-12-17T23:37:23.117Z,-1.18
2022-12-17T23:39:52.372Z,-1.15
2022-12-17T23:42:20.236Z,-1.11
2022-12-17T23:44:48.092Z,-0.92
2022-12-17T23:47:16.029Z,-0.98
2022-12-17T23:49:43.947Z,-1.50
2022-12-17T23:52:11.876Z,-1.46
2022-12-17T23:54:39.701Z,-1.43
2022-12-17T23:57:09.218Z,-1.83
2022-12-17T23:59:37.093Z,-2.16
